Time;durP1;ratioP1;P1;durP2;ratioP2;P2;SDS_P1;SDS_P2;PMS_P1;PMS_P2;Temp;Humidity;BMP_temperature;BMP_pressure;BME280_temperature;BME280_humidity;BME280_pressure;Samples;Min_cycle;Max_cycle;Signal;HPM_P1;HPM_P2
2023/07/25 00:03:04;;;;;;;9.55;8.55;;;;;;;;;;10332879;28;20075;-64
2023/07/25 00:08:03;;;;;;;10.60;8.57;;;;;;;;;;10334900;28;20079;-63
2023/07/25 00:13:01;;;;;;;10.23;8.40;;;;;;;;;;10333872;28;20080;-63
2023/07/25 00:17:59;;;;;;;8.98;8.07;;;;;;;;;;10334309;28;20082;-64
2023/07/25 00:22:59;;;;;;;8.68;7.88;;;;;;;;;;10335655;28;20446;-64
2023/07/25 00:27:57;;;;;;;8.40;7.60;;;;;;;;;;10335559;28;20078;-64
2023/07/25 00:32:55;;;;;;;9.70;8.70;;;;;;;;;;10332406;28;20070;-64
2023/07/25 00:37:54;;;;;;;8.43;7.63;;;;;;;;;;10333032;28;20076;-63
2023/07/25 00:42:57;;;;;;;8.70;7.72;;;;;;;;;;10317407;28;20480;-64
2023/07/25 00:47:55;;;;;;;10.03;8.03;;;;;;;;;;10328690;28;20464;-63
2023/07/25 00:52:57;;;;;;;9.25;8.32;;;;;;;;;;10333588;28;20064;-64
2023/07/25 00:57:56;;;;;;;8.63;7.70;;;;;;;;;;10317140;28;20072;-64
2023/07/25 01:02:55;;;;;;;9.60;7.72;;;;;;;;;;10335627;28;20547;-64
2023/07/25 01:07:53;;;;;;;8.77;7.97;;;;;;;;;;10321611;28;20083;-63
2023/07/25 01:12:51;;;;;;;8.48;7.57;;;;;;;;;;10317008;28;20075;-64
2023/07/25 01:17:51;;;;;;;9.13;8.10;;;;;;;;;;10319753;28;20104;-64
2023/07/25 01:22:50;;;;;;;8.15;7.35;;;;;;;;;;10333730;28;20345;-64
2023/07/25 01:27:52;;;;;;;8.35;7.55;;;;;;;;;;10336401;28;20063;-64
2023/07/25 01:32:51;;;;;;;9.20;8.13;;;;;;;;;;10331940;28;20122;-64
2023/07/25 01:37:49;;;;;;;8.90;7.60;;;;;;;;;;10337194;28;20509;-63
2023/07/25 01:42:50;;;;;;;8.77;7.85;;;;;;;;;;10311647;28;20082;-63
2023/07/25 01:47:49;;;;;;;9.57;8.20;;;;;;;;;;10333325;28;20075;-63
2023/07/25 01:52:48;;;;;;;8.63;7.72;;;;;;;;;;10332679;28;20107;-63
2023/07/25 01:57:46;;;;;;;12.10;8.15;;;;;;;;;;10310264;28;20088;-63
2023/07/25 02:02:44;;;;;;;9.13;8.20;;;;;;;;;;10315034;28;20083;-63
2023/07/25 02:07:44;;;;;;;8.70;7.85;;;;;;;;;;10331489;28;20064;-63
2023/07/25 02:12:42;;;;;;;9.95;7.53;;;;;;;;;;10310564;28;20127;-63
2023/07/25 02:17:41;;;;;;;9.30;7.70;;;;;;;;;;10312325;28;20088;-64
2023/07/25 02:22:39;;;;;;;10.95;8.10;;;;;;;;;;10314011;28;20070;-64
2023/07/25 02:27:39;;;;;;;8.95;7.70;;;;;;;;;;10325280;28;20079;-63
2023/07/25 02:32:37;;;;;;;9.15;8.15;;;;;;;;;;10316667;28;20056;-63
2023/07/25 02:37:35;;;;;;;8.95;8.05;;;;;;;;;;10330400;28;20075;-65
2023/07/25 02:42:33;;;;;;;9.95;8.70;;;;;;;;;;10329603;28;20076;-63
2023/07/25 02:47:33;;;;;;;9.00;8.10;;;;;;;;;;10328686;28;20075;-64
2023/07/25 02:52:31;;;;;;;8.88;7.97;;;;;;;;;;10326773;28;20102;-64
2023/07/25 02:57:30;;;;;;;11.32;8.25;;;;;;;;;;10330436;28;20452;-63
2023/07/25 03:02:28;;;;;;;8.77;7.88;;;;;;;;;;10329339;28;20067;-64
2023/07/25 03:07:28;;;;;;;9.95;8.02;;;;;;;;;;10330319;28;20087;-64
2023/07/25 03:12:26;;;;;;;9.23;8.30;;;;;;;;;;10328131;28;20060;-64
2023/07/25 03:17:24;;;;;;;9.60;8.60;;;;;;;;;;10327693;28;20083;-64
2023/07/25 03:22:23;;;;;;;9.50;7.82;;;;;;;;;;10329783;28;20078;-63
2023/07/25 03:27:22;;;;;;;9.15;8.25;;;;;;;;;;10329801;28;20067;-63
2023/07/25 03:32:21;;;;;;;8.98;8.07;;;;;;;;;;10317121;28;20497;-63
2023/07/25 03:37:19;;;;;;;10.95;9.02;;;;;;;;;;10337526;28;20770;-64
2023/07/25 03:42:17;;;;;;;9.98;8.25;;;;;;;;;;10334518;28;20068;-64
2023/07/25 03:47:17;;;;;;;10.00;9.00;;;;;;;;;;10335459;28;20075;-64
2023/07/25 03:52:15;;;;;;;9.52;8.63;;;;;;;;;;10340320;28;20103;-64
2023/07/25 03:57:13;;;;;;;8.95;8.10;;;;;;;;;;10339944;28;20076;-64
2023/07/25 04:02:12;;;;;;;9.52;8.52;;;;;;;;;;10336526;28;20071;-63
2023/07/25 04:07:11;;;;;;;11.30;8.95;;;;;;;;;;10336129;28;20060;-64
2023/07/25 04:12:09;;;;;;;13.63;9.13;;;;;;;;;;10334522;28;20060;-62
2023/07/25 04:17:08;;;;;;;25.50;10.85;;;;;;;;;;10337793;28;20335;-63
2023/07/25 04:22:06;;;;;;;9.30;8.23;;;;;;;;;;10326324;28;20079;-62
2023/07/25 04:27:06;;;;;;;9.55;8.32;;;;;;;;;;10337121;28;20071;-63
2023/07/25 04:32:04;;;;;;;8.75;7.95;;;;;;;;;;10333007;28;20064;-63
2023/07/25 04:37:03;;;;;;;10.07;8.30;;;;;;;;;;10331327;28;20513;-64
2023/07/25 04:42:01;;;;;;;9.90;8.93;;;;;;;;;;10330147;28;20064;-64
2023/07/25 04:47:01;;;;;;;12.95;9.45;;;;;;;;;;10322587;28;20041;-64
2023/07/25 04:51:59;;;;;;;94.32;84.88;;;;;;;;;;10330485;28;20072;-63
2023/07/25 04:57:00;;;;;;;8.35;7.55;;;;;;;;;;10319132;28;20083;-63
2023/07/25 05:01:58;;;;;;;12.75;8.52;;;;;;;;;;10334992;28;20076;-63
2023/07/25 05:06:58;;;;;;;9.93;8.95;;;;;;;;;;10331023;28;20068;-64
2023/07/25 05:11:57;;;;;;;16.08;12.85;;;;;;;;;;10331723;28;20075;-65
2023/07/25 05:16:55;;;;;;;9.35;8.45;;;;;;;;;;10331383;28;20461;-64
2023/07/25 05:21:54;;;;;;;9.50;8.50;;;;;;;;;;10314866;28;20044;-64
2023/07/25 05:26:53;;;;;;;9.57;8.55;;;;;;;;;;10332275;28;20497;-64
2023/07/25 05:31:53;;;;;;;9.38;7.97;;;;;;;;;;10327637;28;20378;-64
2023/07/25 05:36:51;;;;;;;8.75;7.95;;;;;;;;;;10329499;28;20453;-64
2023/07/25 05:41:49;;;;;;;9.35;7.72;;;;;;;;;;10328330;28;20081;-64
2023/07/25 05:46:48;;;;;;;15.27;13.30;;;;;;;;;;10323390;28;20060;-64
2023/07/25 05:51:47;;;;;;;8.43;7.63;;;;;;;;;;10320633;28;20079;-64
2023/07/25 05:56:45;;;;;;;16.27;9.25;;;;;;;;;;10321534;28;20075;-64
2023/07/25 06:01:43;;;;;;;14.07;8.85;;;;;;;;;;10332836;28;20459;-64
2023/07/25 06:06:43;;;;;;;11.75;8.45;;;;;;;;;;10329416;28;20076;-64
2023/07/25 06:11:41;;;;;;;10.48;8.40;;;;;;;;;;10326842;28;20071;-64
2023/07/25 06:16:40;;;;;;;10.70;8.45;;;;;;;;;;10330779;28;20076;-65
2023/07/25 06:21:38;;;;;;;27.75;25.13;;;;;;;;;;10330583;28;20071;-64
2023/07/25 06:26:38;;;;;;;9.23;8.32;;;;;;;;;;10329933;28;20084;-64
2023/07/25 06:31:36;;;;;;;10.35;8.02;;;;;;;;;;10333031;28;20266;-63
2023/07/25 06:36:35;;;;;;;14.02;12.70;;;;;;;;;;10328097;28;20068;-64
2023/07/25 06:41:33;;;;;;;10.38;8.57;;;;;;;;;;10328246;28;20072;-64
2023/07/25 06:46:34;;;;;;;11.43;7.93;;;;;;;;;;10327810;28;20469;-64
2023/07/25 06:51:33;;;;;;;9.50;8.48;;;;;;;;;;10331801;28;20087;-64
2023/07/25 06:56:31;;;;;;;13.95;9.43;;;;;;;;;;10332099;28;20484;-63
2023/07/25 07:01:29;;;;;;;13.00;9.38;;;;;;;;;;10332019;28;20071;-63
2023/07/25 07:06:29;;;;;;;10.10;8.88;;;;;;;;;;10335022;28;20064;-64
2023/07/25 07:11:28;;;;;;;11.32;8.65;;;;;;;;;;10335374;28;20059;-64
2023/07/25 07:16:29;;;;;;;10.05;8.70;;;;;;;;;;10348516;28;20146;-64
2023/07/25 07:21:31;;;;;;;9.45;8.55;;;;;;;;;;10349858;28;20078;-64
2023/07/25 07:26:29;;;;;;;11.55;10.55;;;;;;;;;;10348143;28;20067;-64
2023/07/25 07:31:27;;;;;;;9.25;8.32;;;;;;;;;;10337551;28;20071;-65
2023/07/25 07:36:26;;;;;;;13.60;8.48;;;;;;;;;;10330182;28;20087;-64
2023/07/25 07:41:26;;;;;;;10.75;8.23;;;;;;;;;;10331408;28;20515;-64
2023/07/25 07:46:24;;;;;;;9.30;8.25;;;;;;;;;;10335733;28;20063;-64
2023/07/25 07:51:23;;;;;;;12.25;9.13;;;;;;;;;;10334687;28;20072;-64
2023/07/25 07:56:21;;;;;;;9.38;8.45;;;;;;;;;;10335783;28;20086;-64
2023/07/25 08:01:22;;;;;;;11.55;9.68;;;;;;;;;;10332476;28;20147;-64
2023/07/25 08:06:20;;;;;;;11.23;9.07;;;;;;;;;;10336251;28;20079;-63
2023/07/25 08:11:18;;;;;;;11.13;9.27;;;;;;;;;;10338031;28;20470;-64
2023/07/25 08:16:17;;;;;;;11.85;9.85;;;;;;;;;;10333993;28;20517;-64
2023/07/25 08:21:16;;;;;;;22.08;15.23;;;;;;;;;;10335582;28;20521;-64
2023/07/25 08:26:15;;;;;;;12.05;9.48;;;;;;;;;;10334886;28;20084;-64
2023/07/25 08:31:16;;;;;;;14.77;10.85;;;;;;;;;;10333296;28;20083;-64
2023/07/25 08:36:14;;;;;;;11.80;9.45;;;;;;;;;;10335596;28;20083;-65
2023/07/25 08:41:17;;;;;;;14.63;10.15;;;;;;;;;;10334431;28;20072;-64
2023/07/25 08:46:17;;;;;;;11.27;9.75;;;;;;;;;;10332973;28;20076;-64
2023/07/25 08:51:19;;;;;;;12.93;10.57;;;;;;;;;;10333839;28;20072;-66
2023/07/25 08:56:19;;;;;;;24.23;10.73;;;;;;;;;;10335469;28;20075;-65
2023/07/25 09:01:18;;;;;;;17.85;10.75;;;;;;;;;;10333498;28;20084;-64
2023/07/25 09:06:16;;;;;;;11.27;9.52;;;;;;;;;;10333788;28;20068;-64
2023/07/25 09:11:17;;;;;;;15.32;10.27;;;;;;;;;;10334591;28;20082;-63
2023/07/25 09:16:16;;;;;;;10.85;8.82;;;;;;;;;;10337657;28;20076;-64
2023/07/25 09:21:15;;;;;;;11.93;8.45;;;;;;;;;;10336501;28;20075;-64
2023/07/25 09:26:13;;;;;;;18.38;9.10;;;;;;;;;;10334267;28;20876;-64
2023/07/25 09:31:12;;;;;;;14.60;8.70;;;;;;;;;;10327817;28;20068;-65
2023/07/25 09:36:11;;;;;;;10.23;8.82;;;;;;;;;;10331354;28;20064;-64
2023/07/25 09:41:10;;;;;;;11.45;9.07;;;;;;;;;;10331533;28;20068;-65
2023/07/25 09:46:16;;;;;;;9.93;8.77;;;;;;;;;;10331408;28;20075;-65
2023/07/25 09:51:27;;;;;;;13.05;9.07;;;;;;;;;;10329464;28;20087;-67
2023/07/25 09:56:37;;;;;;;14.60;8.77;;;;;;;;;;10409011;27;20624;-64
2023/07/25 10:01:36;;;;;;;13.18;8.65;;;;;;;;;;10401993;28;20075;-65
2023/07/25 10:06:36;;;;;;;11.30;8.43;;;;;;;;;;10409406;28;20082;-64
2023/07/25 10:11:34;;;;;;;12.90;8.15;;;;;;;;;;10407620;28;20086;-63
2023/07/25 10:16:34;;;;;;;11.88;8.18;;;;;;;;;;10406338;28;20102;-64
2023/07/25 10:21:46;;;;;;;11.70;8.15;;;;;;;;;;10407512;28;20078;-64
2023/07/25 10:26:54;;;;;;;9.88;8.07;;;;;;;;;;10401935;28;20082;-65
2023/07/25 10:31:53;;;;;;;14.55;8.45;;;;;;;;;;10405772;28;20512;-64
2023/07/25 10:37:19;;;;;;;14.82;9.85;;;;;;;;;;10408200;27;20319;-64
2023/07/25 10:42:17;;;;;;;11.55;9.18;;;;;;;;;;10404837;28;20083;-65
2023/07/25 10:47:34;;;;;;;11.48;8.45;;;;;;;;;;10404666;28;20463;-65
2023/07/25 10:52:43;;;;;;;10.75;8.93;;;;;;;;;;10405639;28;20075;-64
2023/07/25 10:57:42;;;;;;;15.07;8.70;;;;;;;;;;10402259;28;20071;-64
2023/07/25 11:02:42;;;;;;;11.23;7.95;;;;;;;;;;10404737;28;20075;-64
2023/07/25 11:07:41;;;;;;;14.43;8.02;;;;;;;;;;10378465;28;20067;-64
2023/07/25 11:12:40;;;;;;;12.25;7.90;;;;;;;;;;10377094;28;20083;-63
2023/07/25 11:17:39;;;;;;;15.63;8.38;;;;;;;;;;10376266;28;20067;-64
2023/07/25 11:22:37;;;;;;;11.57;7.85;;;;;;;;;;10373377;28;20517;-64
2023/07/25 11:27:36;;;;;;;8.80;7.88;;;;;;;;;;10376246;28;20079;-66
2023/07/25 11:32:35;;;;;;;9.60;7.70;;;;;;;;;;10376577;28;20074;-64
2023/07/25 11:37:34;;;;;;;12.77;8.23;;;;;;;;;;10375243;28;20059;-64
2023/07/25 11:42:32;;;;;;;16.40;7.18;;;;;;;;;;10376799;28;20071;-64
2023/07/25 11:47:30;;;;;;;10.55;7.70;;;;;;;;;;10375114;28;20063;-64
2023/07/25 11:52:30;;;;;;;15.75;8.88;;;;;;;;;;10373636;28;20628;-65
2023/07/25 11:57:28;;;;;;;10.85;7.05;;;;;;;;;;10374326;28;20125;-63
2023/07/25 12:02:27;;;;;;;12.73;8.07;;;;;;;;;;10374959;28;20071;-64
2023/07/25 12:07:46;;;;;;;11.80;7.93;;;;;;;;;;10371729;28;20078;-64
2023/07/25 12:12:46;;;;;;;11.27;7.32;;;;;;;;;;10373956;28;20063;-64
2023/07/25 12:17:44;;;;;;;10.02;6.80;;;;;;;;;;10373032;28;20071;-64
2023/07/25 12:22:43;;;;;;;10.15;6.57;;;;;;;;;;10376188;28;20079;-65
2023/07/25 12:27:46;;;;;;;13.27;6.63;;;;;;;;;;10375581;28;20078;-65
2023/07/25 12:32:44;;;;;;;10.18;6.82;;;;;;;;;;10372809;28;20079;-65
2023/07/25 12:37:43;;;;;;;14.98;6.93;;;;;;;;;;10374487;28;20494;-64
2023/07/25 12:42:41;;;;;;;11.77;6.43;;;;;;;;;;10373224;28;20098;-64
2023/07/25 12:47:41;;;;;;;11.57;6.50;;;;;;;;;;10367848;28;20520;-65
2023/07/25 12:52:39;;;;;;;14.60;7.55;;;;;;;;;;10371670;28;20075;-64
2023/07/25 12:57:37;;;;;;;14.13;6.68;;;;;;;;;;10375350;28;20067;-65
2023/07/25 13:02:37;;;;;;;11.20;5.88;;;;;;;;;;10373144;28;20078;-65
2023/07/25 13:07:37;;;;;;;17.15;6.63;;;;;;;;;;10369189;28;20063;-66
2023/07/25 13:12:35;;;;;;;16.95;6.07;;;;;;;;;;10370554;28;20449;-65
2023/07/25 13:17:34;;;;;;;13.07;6.68;;;;;;;;;;10372099;28;20064;-64
2023/07/25 13:22:33;;;;;;;12.90;6.65;;;;;;;;;;10371420;28;20068;-64
2023/07/25 13:27:32;;;;;;;11.27;6.10;;;;;;;;;;10370759;28;20075;-64
2023/07/25 13:32:31;;;;;;;15.27;5.82;;;;;;;;;;10372465;28;20071;-64
2023/07/25 13:37:29;;;;;;;16.75;7.20;;;;;;;;;;10372297;28;20563;-64
2023/07/25 13:42:27;;;;;;;9.45;5.38;;;;;;;;;;10369606;28;20469;-64
2023/07/25 13:47:27;;;;;;;10.32;6.55;;;;;;;;;;10371633;28;20113;-63
2023/07/25 13:52:25;;;;;;;13.95;6.50;;;;;;;;;;10372704;28;20588;-65
2023/07/25 13:57:23;;;;;;;19.70;6.75;;;;;;;;;;10366666;28;20067;-65
2023/07/25 14:02:31;;;;;;;13.90;6.47;;;;;;;;;;10371559;28;20079;-65
2023/07/25 14:07:29;;;;;;;7.53;5.50;;;;;;;;;;10368203;28;20079;-65
2023/07/25 14:12:27;;;;;;;16.95;6.70;;;;;;;;;;10369192;28;20059;-65
2023/07/25 14:17:26;;;;;;;9.82;6.43;;;;;;;;;;10370114;28;20067;-65
2023/07/25 14:22:25;;;;;;;7.90;6.00;;;;;;;;;;10369879;28;20150;-64
2023/07/25 14:27:23;;;;;;;12.68;8.13;;;;;;;;;;10370171;28;20098;-65
2023/07/25 14:32:22;;;;;;;15.65;6.38;;;;;;;;;;10372224;28;20543;-65
2023/07/25 14:37:23;;;;;;;14.73;6.75;;;;;;;;;;10371925;28;20544;-64
2023/07/25 14:42:23;;;;;;;16.83;6.82;;;;;;;;;;10376631;28;20488;-64
2023/07/25 14:47:21;;;;;;;12.93;7.38;;;;;;;;;;10377421;28;20086;-64
2023/07/25 14:52:20;;;;;;;20.45;6.90;;;;;;;;;;10379900;28;20078;-65
2023/07/25 14:57:19;;;;;;;19.60;6.30;;;;;;;;;;10376340;28;20071;-65
2023/07/25 15:02:19;;;;;;;16.48;7.03;;;;;;;;;;10377694;28;20067;-65
2023/07/25 15:07:17;;;;;;;13.38;5.88;;;;;;;;;;10376497;28;20076;-65
2023/07/25 15:12:15;;;;;;;13.20;6.38;;;;;;;;;;10377323;28;20079;-66
2023/07/25 15:17:22;;;;;;;18.83;6.53;;;;;;;;;;10379716;28;20071;-65
2023/07/25 15:22:20;;;;;;;15.90;6.55;;;;;;;;;;10372662;27;20521;-64
2023/07/25 15:27:18;;;;;;;10.93;6.00;;;;;;;;;;10375432;27;20071;-63
2023/07/25 15:32:17;;;;;;;18.60;7.35;;;;;;;;;;10370051;27;20722;-64
2023/07/25 15:37:17;;;;;;;9.05;5.63;;;;;;;;;;10372745;28;20098;-64
2023/07/25 15:42:15;;;;;;;10.18;6.43;;;;;;;;;;10373649;28;20078;-64
2023/07/25 15:47:13;;;;;;;19.92;7.60;;;;;;;;;;10376148;28;20068;-63
2023/07/25 15:52:12;;;;;;;12.75;6.38;;;;;;;;;;10372007;28;20079;-64
2023/07/25 15:57:11;;;;;;;15.93;7.25;;;;;;;;;;10371308;28;20075;-64
2023/07/25 16:02:10;;;;;;;13.30;7.80;;;;;;;;;;10372661;28;20082;-64
2023/07/25 16:07:08;;;;;;;12.63;6.70;;;;;;;;;;10374492;28;20082;-64
2023/07/25 16:12:07;;;;;;;15.40;6.30;;;;;;;;;;10376245;28;20063;-64
2023/07/25 16:17:07;;;;;;;9.43;7.75;;;;;;;;;;10373437;28;20071;-64
2023/07/25 16:22:05;;;;;;;14.80;7.38;;;;;;;;;;10375083;28;20082;-64
2023/07/25 16:27:04;;;;;;;11.38;6.88;;;;;;;;;;10372325;28;20070;-64
2023/07/25 16:32:03;;;;;;;11.20;7.60;;;;;;;;;;10374143;28;20074;-64
2023/07/25 16:37:03;;;;;;;11.48;6.93;;;;;;;;;;10373914;28;20072;-63
2023/07/25 16:42:01;;;;;;;11.65;6.90;;;;;;;;;;10372880;28;20078;-64
2023/07/25 16:46:59;;;;;;;10.93;6.93;;;;;;;;;;10372207;28;20075;-64
2023/07/25 16:51:57;;;;;;;12.18;6.68;;;;;;;;;;10375571;28;20098;-64
2023/07/25 16:56:57;;;;;;;12.70;6.75;;;;;;;;;;10372775;28;20088;-64
2023/07/25 17:01:55;;;;;;;12.02;6.88;;;;;;;;;;10371087;28;20093;-64
2023/07/25 17:06:53;;;;;;;19.27;7.80;;;;;;;;;;10366967;28;20068;-64
2023/07/25 17:11:52;;;;;;;13.98;7.93;;;;;;;;;;10374426;28;20075;-64
2023/07/25 17:16:55;;;;;;;15.45;8.15;;;;;;;;;;10372043;28;20071;-63
2023/07/25 17:21:53;;;;;;;14.40;9.75;;;;;;;;;;10371435;28;20078;-62
2023/07/25 17:26:52;;;;;;;12.52;8.15;;;;;;;;;;10371362;28;20090;-63
2023/07/25 17:31:50;;;;;;;13.50;7.18;;;;;;;;;;10370555;28;20468;-63
2023/07/25 17:36:49;;;;;;;10.95;7.85;;;;;;;;;;10371268;28;20071;-63
2023/07/25 17:41:48;;;;;;;10.77;6.90;;;;;;;;;;10371672;28;20529;-62
2023/07/25 17:46:46;;;;;;;14.35;7.40;;;;;;;;;;10370548;28;20068;-63
2023/07/25 17:51:44;;;;;;;12.45;7.72;;;;;;;;;;10370870;28;20072;-64
2023/07/25 17:56:44;;;;;;;12.30;7.65;;;;;;;;;;10373932;28;20456;-64
2023/07/25 18:01:42;;;;;;;9.13;7.35;;;;;;;;;;10366777;28;20099;-63
2023/07/25 18:06:40;;;;;;;9.18;7.82;;;;;;;;;;10364967;28;20063;-64
2023/07/25 18:11:38;;;;;;;9.93;7.05;;;;;;;;;;10364847;28;20059;-64
2023/07/25 18:16:38;;;;;;;11.13;7.85;;;;;;;;;;10376721;27;20071;-63
2023/07/25 18:21:36;;;;;;;16.52;8.65;;;;;;;;;;10380541;27;20072;-64
2023/07/25 18:26:34;;;;;;;13.10;8.23;;;;;;;;;;10378364;27;20063;-64
2023/07/25 18:31:36;;;;;;;14.10;7.55;;;;;;;;;;10380513;27;20078;-65
2023/07/25 18:36:35;;;;;;;14.55;7.50;;;;;;;;;;10373737;28;20075;-63
2023/07/25 18:41:34;;;;;;;10.00;7.30;;;;;;;;;;10378074;27;20064;-63
2023/07/25 18:46:32;;;;;;;11.15;7.22;;;;;;;;;;10375545;27;20075;-63
2023/07/25 18:51:31;;;;;;;14.23;7.50;;;;;;;;;;10380033;27;20070;-64
2023/07/25 18:56:30;;;;;;;14.93;7.35;;;;;;;;;;10372464;28;20102;-63
2023/07/25 19:01:29;;;;;;;15.40;7.95;;;;;;;;;;10376608;27;20068;-63
2023/07/25 19:06:28;;;;;;;14.68;7.20;;;;;;;;;;10378632;27;20071;-63
2023/07/25 19:11:26;;;;;;;8.35;6.07;;;;;;;;;;10374497;28;20078;-63
2023/07/25 19:16:26;;;;;;;12.52;7.68;;;;;;;;;;10375516;27;20511;-63
2023/07/25 19:21:24;;;;;;;14.60;7.43;;;;;;;;;;10377410;27;20068;-64
2023/07/25 19:26:23;;;;;;;10.50;6.75;;;;;;;;;;10367047;27;20067;-64
2023/07/25 19:31:21;;;;;;;15.05;7.30;;;;;;;;;;10365438;27;20063;-64
2023/07/25 19:36:21;;;;;;;11.00;6.80;;;;;;;;;;10373784;27;20071;-64
2023/07/25 19:41:19;;;;;;;10.02;6.90;;;;;;;;;;10370323;27;20083;-63
2023/07/25 19:46:17;;;;;;;12.10;7.07;;;;;;;;;;10373379;27;20068;-63
2023/07/25 19:51:15;;;;;;;10.15;6.90;;;;;;;;;;10370333;27;20076;-65
2023/07/25 19:56:15;;;;;;;12.93;6.75;;;;;;;;;;10365537;27;20075;-64
2023/07/25 20:01:13;;;;;;;12.98;8.10;;;;;;;;;;10367252;28;20135;-63
2023/07/25 20:06:12;;;;;;;12.82;7.18;;;;;;;;;;10367122;27;20764;-65
2023/07/25 20:11:10;;;;;;;14.52;7.38;;;;;;;;;;10369668;27;20081;-63
2023/07/25 20:16:10;;;;;;;13.77;6.78;;;;;;;;;;10376134;27;20075;-64
2023/07/25 20:21:09;;;;;;;9.57;6.15;;;;;;;;;;10369570;28;20067;-64
2023/07/25 20:26:08;;;;;;;12.23;6.85;;;;;;;;;;10373339;27;20063;-64
2023/07/25 20:31:07;;;;;;;16.38;7.90;;;;;;;;;;10379562;27;20067;-64
2023/07/25 20:36:07;;;;;;;18.00;6.30;;;;;;;;;;10371880;27;20461;-64
2023/07/25 20:41:05;;;;;;;14.40;6.82;;;;;;;;;;10367132;28;20072;-65
2023/07/25 20:46:04;;;;;;;11.45;6.60;;;;;;;;;;10374596;27;20086;-64
2023/07/25 20:51:02;;;;;;;15.02;7.03;;;;;;;;;;10383289;27;20082;-65
2023/07/25 20:56:02;;;;;;;14.85;6.82;;;;;;;;;;10366678;27;20071;-65
2023/07/25 21:01:00;;;;;;;9.40;6.53;;;;;;;;;;10367816;27;20529;-64
2023/07/25 21:05:58;;;;;;;10.88;6.78;;;;;;;;;;10374294;27;20071;-64
2023/07/25 21:10:57;;;;;;;10.32;6.63;;;;;;;;;;10370416;28;20094;-65
2023/07/25 21:15:56;;;;;;;7.30;5.50;;;;;;;;;;10372606;27;20075;-64
2023/07/25 21:20:55;;;;;;;13.35;6.72;;;;;;;;;;10369212;28;20530;-65
2023/07/25 21:25:53;;;;;;;8.95;6.13;;;;;;;;;;10367939;28;20075;-64
2023/07/25 21:30:52;;;;;;;10.02;7.43;;;;;;;;;;10369737;28;20067;-64
2023/07/25 21:35:52;;;;;;;13.02;7.35;;;;;;;;;;10372373;27;20074;-64
2023/07/25 21:40:51;;;;;;;13.52;7.15;;;;;;;;;;10374882;28;20074;-64
2023/07/25 21:45:50;;;;;;;12.15;7.10;;;;;;;;;;10369277;28;20067;-65
2023/07/25 21:50:48;;;;;;;11.95;7.32;;;;;;;;;;10370586;28;20074;-64
2023/07/25 21:55:47;;;;;;;13.23;7.22;;;;;;;;;;10375449;28;20072;-64
2023/07/25 22:00:46;;;;;;;13.43;7.00;;;;;;;;;;10369704;28;20070;-64
2023/07/25 22:05:45;;;;;;;10.73;7.65;;;;;;;;;;10367819;28;20063;-64
2023/07/25 22:10:43;;;;;;;10.77;7.32;;;;;;;;;;10368570;28;20075;-64
2023/07/25 22:15:43;;;;;;;11.90;6.32;;;;;;;;;;10369535;28;20062;-65
2023/07/25 22:20:41;;;;;;;8.68;6.82;;;;;;;;;;10372068;28;20082;-64
2023/07/25 22:25:49;;;;;;;10.43;5.60;;;;;;;;;;10367893;28;20200;-63
2023/07/25 22:30:49;;;;;;;10.23;6.10;;;;;;;;;;10372809;28;20074;-63
2023/07/25 22:35:47;;;;;;;8.98;6.18;;;;;;;;;;10371346;28;20064;-63
2023/07/25 22:40:46;;;;;;;17.67;7.30;;;;;;;;;;10377143;28;20479;-65
2023/07/25 22:45:44;;;;;;;15.95;8.00;;;;;;;;;;10368360;28;20063;-64
2023/07/25 22:50:43;;;;;;;9.90;5.75;;;;;;;;;;10371562;28;20083;-64
2023/07/25 22:55:42;;;;;;;9.48;6.30;;;;;;;;;;10369313;28;20087;-64
2023/07/25 23:00:40;;;;;;;13.60;6.85;;;;;;;;;;10370868;28;20075;-65
2023/07/25 23:05:38;;;;;;;8.23;6.00;;;;;;;;;;10378746;28;20082;-63
2023/07/25 23:10:37;;;;;;;10.60;7.18;;;;;;;;;;10369162;28;20090;-65
2023/07/25 23:15:41;;;;;;;9.55;6.57;;;;;;;;;;10377074;28;20076;-64
2023/07/25 23:20:40;;;;;;;11.85;5.70;;;;;;;;;;10374299;28;20083;-64
2023/07/25 23:25:39;;;;;;;19.88;6.38;;;;;;;;;;10377371;28;20063;-64
2023/07/25 23:30:38;;;;;;;11.73;6.45;;;;;;;;;;10372144;28;20063;-64
2023/07/25 23:35:36;;;;;;;11.40;6.10;;;;;;;;;;10374202;27;20505;-64
2023/07/25 23:40:34;;;;;;;7.45;5.47;;;;;;;;;;10375163;28;20075;-63
2023/07/25 23:45:36;;;;;;;12.43;6.90;;;;;;;;;;10377883;28;20066;-63
2023/07/25 23:50:34;;;;;;;9.45;5.80;;;;;;;;;;10375382;28;20076;-63
2023/07/25 23:55:35;;;;;;;9.20;6.40;;;;;;;;;;10376984;28;20099;-64
